Time;durP1;ratioP1;P1;durP2;ratioP2;P2;SDS_P1;SDS_P2;PMS_P1;PMS_P2;Temp;Humidity;BMP_temperature;BMP_pressure;BME280_temperature;BME280_humidity;BME280_pressure;Samples;Min_cycle;Max_cycle;Signal;HPM_P1;HPM_P2
2023/03/13 00:05:20;;;;;;;2.45;1.52;;;6.20;98.90;;;;;;5119246;27;20201;-89
2023/03/13 00:07:47;;;;;;;4.35;1.88;;;6.20;98.70;;;;;;5130607;27;20199;-90
2023/03/13 00:10:15;;;;;;;4.10;2.08;;;6.10;98.80;;;;;;5133833;27;20206;-90
2023/03/13 00:12:42;;;;;;;3.37;1.40;;;6.10;98.90;;;;;;5134177;27;20199;-89
2023/03/13 00:15:10;;;;;;;3.90;1.85;;;6.10;99.00;;;;;;5125425;27;20976;-89
2023/03/13 00:23:27;;;;;;;3.60;2.33;;;6.10;98.70;;;;;;5119345;27;20249;-89
2023/03/13 00:28:40;;;;;;;3.90;2.05;;;6.00;98.90;;;;;;5115968;27;20248;-89
2023/03/13 00:31:09;;;;;;;4.43;1.77;;;5.90;99.00;;;;;;5127835;27;20207;-90
2023/03/13 00:33:39;;;;;;;3.03;2.00;;;5.90;99.10;;;;;;5125973;28;20579;-89
2023/03/13 00:36:08;;;;;;;2.88;1.65;;;5.80;99.10;;;;;;5099422;27;20222;-93
2023/03/13 00:38:35;;;;;;;2.85;1.63;;;5.80;99.30;;;;;;5124309;27;20905;-89
2023/03/13 00:43:45;;;;;;;2.03;1.60;;;5.70;99.50;;;;;;5114086;27;20195;-89
2023/03/13 00:46:14;;;;;;;3.53;1.80;;;5.70;99.30;;;;;;5125495;27;20238;-89
2023/03/13 00:48:42;;;;;;;4.82;1.60;;;5.70;99.30;;;;;;5130512;27;20196;-89
2023/03/13 00:51:10;;;;;;;2.33;1.40;;;5.60;99.30;;;;;;5125577;27;20203;-89
2023/03/13 00:53:37;;;;;;;2.10;1.58;;;5.60;99.50;;;;;;5123081;27;20675;-89
2023/03/13 00:56:06;;;;;;;1.83;1.20;;;5.60;99.80;;;;;;5098480;28;20644;-88
2023/03/13 00:58:35;;;;;;;1.80;1.40;;;5.50;99.60;;;;;;5117663;28;20595;-88
2023/03/13 01:01:10;;;;;;;3.23;1.47;;;5.50;99.70;;;;;;5124887;27;20223;-88
2023/03/13 01:03:38;;;;;;;1.90;1.33;;;5.40;99.70;;;;;;5126782;28;20198;-88
2023/03/13 01:06:11;;;;;;;2.27;1.33;;;5.40;99.90;;;;;;5121639;27;20214;-89
2023/03/13 01:08:38;;;;;;;2.53;1.33;;;5.30;99.90;;;;;;5128295;27;20702;-89
2023/03/13 01:11:07;;;;;;;2.13;1.30;;;5.20;99.90;;;;;;5130353;27;20199;-88
2023/03/13 01:13:35;;;;;;;2.30;1.30;;;5.20;99.90;;;;;;5114649;27;20196;-89
2023/03/13 01:16:03;;;;;;;3.33;1.43;;;5.20;99.90;;;;;;5116000;27;20244;-88
2023/03/13 01:18:30;;;;;;;2.50;1.40;;;5.20;99.90;;;;;;5092782;28;20202;-88
2023/03/13 01:20:57;;;;;;;3.30;1.40;;;5.20;99.90;;;;;;5111819;28;20687;-88
2023/03/13 01:23:26;;;;;;;1.70;1.23;;;5.10;99.90;;;;;;5115512;27;20220;-88
2023/03/13 01:25:54;;;;;;;1.83;1.30;;;5.10;99.90;;;;;;5111158;28;20560;-88
2023/03/13 01:28:21;;;;;;;3.13;1.43;;;5.00;99.90;;;;;;5103847;27;20196;-88
2023/03/13 01:30:48;;;;;;;2.57;1.30;;;5.00;99.90;;;;;;5111163;28;20227;-88
2023/03/13 01:33:15;;;;;;;2.23;1.37;;;5.00;99.90;;;;;;5105862;27;20196;-89
2023/03/13 01:35:42;;;;;;;3.73;1.30;;;4.90;99.90;;;;;;5104441;28;20193;-88
2023/03/13 01:38:09;;;;;;;2.17;1.10;;;4.90;99.90;;;;;;5111146;28;20678;-88
2023/03/13 01:40:42;;;;;;;1.60;1.30;;;4.90;99.90;;;;;;5106697;27;20226;-86
2023/03/13 01:43:18;;;;;;;1.90;1.20;;;4.90;99.90;;;;;;5109724;27;20284;-88
2023/03/13 01:46:02;;;;;;;2.70;1.30;;;4.80;99.90;;;;;;5108401;27;20204;-88
2023/03/13 01:48:38;;;;;;;2.00;1.10;;;4.80;99.90;;;;;;5108663;28;21072;-85
2023/03/13 01:51:09;;;;;;;1.73;1.40;;;4.80;99.90;;;;;;5107932;27;20660;-88
2023/03/13 01:53:39;;;;;;;1.73;1.10;;;4.80;99.90;;;;;;5107214;27;20204;-87
2023/03/13 01:56:13;;;;;;;2.30;1.50;;;4.70;99.90;;;;;;5108327;28;20196;-87
2023/03/13 01:58:40;;;;;;;2.73;1.40;;;4.60;99.90;;;;;;5112611;27;20780;-89
2023/03/13 02:01:07;;;;;;;1.90;1.27;;;4.60;99.90;;;;;;5107998;27;20274;-88
2023/03/13 02:03:36;;;;;;;2.33;1.20;;;4.60;99.90;;;;;;5112688;27;20211;-88
2023/03/13 02:06:06;;;;;;;1.97;1.27;;;4.60;99.90;;;;;;5107099;27;20205;-88
2023/03/13 02:08:37;;;;;;;2.70;1.20;;;4.50;99.90;;;;;;5111074;27;20724;-87
2023/03/13 02:11:15;;;;;;;1.20;1.10;;;4.50;99.90;;;;;;5110014;27;20196;-87
2023/03/13 02:13:43;;;;;;;2.53;1.10;;;4.60;99.90;;;;;;5102646;27;20206;-87
2023/03/13 02:16:11;;;;;;;1.30;1.17;;;4.60;99.90;;;;;;5109702;27;20192;-87
2023/03/13 02:18:38;;;;;;;1.20;1.10;;;4.60;99.90;;;;;;5117337;27;20192;-87
2023/03/13 02:21:13;;;;;;;1.53;1.10;;;4.60;99.90;;;;;;5109606;27;21017;-87
2023/03/13 02:23:49;;;;;;;1.60;0.80;;;4.60;99.90;;;;;;5110845;27;20223;-87
2023/03/13 02:26:18;;;;;;;1.47;1.00;;;4.60;99.90;;;;;;5121215;27;20230;-87
2023/03/13 02:28:45;;;;;;;2.03;1.20;;;4.60;99.90;;;;;;5108611;27;20200;-90
2023/03/13 02:31:12;;;;;;;1.20;1.07;;;4.60;99.90;;;;;;5108531;28;20200;-88
2023/03/13 02:33:42;;;;;;;1.33;1.10;;;4.60;99.90;;;;;;5108236;28;20203;-87
2023/03/13 02:36:11;;;;;;;1.07;0.97;;;4.50;99.90;;;;;;5109673;27;20239;-87
2023/03/13 02:38:43;;;;;;;1.27;1.00;;;4.50;99.90;;;;;;5118591;27;20204;-87
2023/03/13 02:41:11;;;;;;;1.53;1.00;;;4.50;99.90;;;;;;5118064;27;20223;-87
2023/03/13 02:43:39;;;;;;;1.43;1.00;;;4.50;99.90;;;;;;5106678;27;20203;-87
2023/03/13 02:46:10;;;;;;;1.37;1.10;;;4.50;99.90;;;;;;5110883;27;20195;-88
2023/03/13 02:48:39;;;;;;;1.53;1.30;;;4.50;99.90;;;;;;5115484;27;20196;-86
2023/03/13 02:51:12;;;;;;;1.00;0.90;;;4.50;99.90;;;;;;5130760;27;20210;-87
2023/03/13 02:53:40;;;;;;;1.07;1.03;;;4.50;99.90;;;;;;5130073;27;20206;-87
2023/03/13 02:56:07;;;;;;;1.27;0.90;;;4.60;99.90;;;;;;5117298;27;20204;-87
2023/03/13 02:58:43;;;;;;;1.07;0.90;;;4.70;99.90;;;;;;5120032;27;20199;-87
2023/03/13 03:01:10;;;;;;;1.17;1.03;;;4.70;99.90;;;;;;5099594;27;20223;-88
2023/03/13 03:03:37;;;;;;;1.17;0.90;;;4.70;99.90;;;;;;5109012;27;20207;-87
2023/03/13 03:06:06;;;;;;;2.60;1.10;;;4.70;99.90;;;;;;5114259;27;20562;-87
2023/03/13 03:08:33;;;;;;;1.10;1.00;;;4.60;99.90;;;;;;5105484;27;20221;-87
2023/03/13 03:11:01;;;;;;;1.87;1.10;;;4.60;99.90;;;;;;5103584;28;20211;-88
2023/03/13 03:13:28;;;;;;;1.63;1.10;;;4.60;99.90;;;;;;5110950;28;20963;-87
2023/03/13 03:15:57;;;;;;;1.20;0.93;;;4.60;99.90;;;;;;5104794;28;20648;-87
2023/03/13 03:18:24;;;;;;;1.97;1.17;;;4.60;99.90;;;;;;5100663;27;20196;-87
2023/03/13 03:20:51;;;;;;;1.13;1.00;;;4.60;99.90;;;;;;5111859;28;20227;-87
2023/03/13 03:23:18;;;;;;;2.93;0.97;;;4.60;99.90;;;;;;5106211;28;20208;-87
2023/03/13 03:25:45;;;;;;;1.10;1.00;;;4.60;99.90;;;;;;5105276;28;20193;-88
2023/03/13 03:28:11;;;;;;;1.20;1.10;;;4.60;99.90;;;;;;5103338;28;20211;-87
2023/03/13 03:30:38;;;;;;;1.43;1.30;;;4.70;99.90;;;;;;5101369;28;20196;-87
2023/03/13 03:33:07;;;;;;;0.80;0.80;;;4.80;99.90;;;;;;5109799;28;20204;-87
2023/03/13 03:35:37;;;;;;;1.70;1.30;;;4.80;99.90;;;;;;5106328;28;20202;-87
2023/03/13 03:38:04;;;;;;;1.43;1.33;;;4.80;99.90;;;;;;5102180;28;20234;-87
2023/03/13 03:40:31;;;;;;;1.23;1.10;;;4.80;99.90;;;;;;5106484;28;20285;-87
2023/03/13 03:42:58;;;;;;;1.97;1.10;;;4.90;99.90;;;;;;5107148;28;21350;-87
2023/03/13 03:45:25;;;;;;;1.10;1.00;;;4.90;99.70;;;;;;5109523;28;20207;-87
2023/03/13 03:47:51;;;;;;;1.63;1.13;;;4.90;99.20;;;;;;5110499;28;20286;-87
2023/03/13 03:50:20;;;;;;;1.37;1.10;;;4.90;99.40;;;;;;5105829;28;20660;-86
2023/03/13 03:52:46;;;;;;;2.07;0.90;;;5.00;99.60;;;;;;5105172;28;20215;-89
2023/03/13 03:55:13;;;;;;;1.00;1.00;;;5.00;99.30;;;;;;5105419;28;20199;-89
2023/03/13 03:57:40;;;;;;;1.60;1.00;;;5.00;99.10;;;;;;5111080;28;20192;-88
2023/03/13 04:00:09;;;;;;;2.27;1.20;;;4.90;99.10;;;;;;5104595;28;20227;-88
2023/03/13 04:02:36;;;;;;;1.87;1.17;;;4.90;99.30;;;;;;5104947;28;20251;-88
2023/03/13 04:05:04;;;;;;;1.43;1.10;;;4.90;99.40;;;;;;5097479;28;20224;-87
2023/03/13 04:07:32;;;;;;;1.57;1.20;;;4.80;99.40;;;;;;5103784;28;20250;-87
2023/03/13 04:09:59;;;;;;;2.07;1.50;;;4.80;99.20;;;;;;5109044;28;20200;-87
2023/03/13 04:12:26;;;;;;;1.80;1.40;;;4.80;99.10;;;;;;5105531;28;20737;-87
2023/03/13 04:14:53;;;;;;;1.30;1.20;;;4.90;98.80;;;;;;5111244;28;20200;-87
2023/03/13 04:17:20;;;;;;;1.33;1.23;;;4.90;98.60;;;;;;5106039;28;20195;-87
2023/03/13 04:19:46;;;;;;;1.50;1.40;;;5.00;98.50;;;;;;5105575;28;20196;-87
2023/03/13 04:22:14;;;;;;;1.87;1.30;;;5.00;98.30;;;;;;5109705;28;20224;-87
2023/03/13 04:24:42;;;;;;;1.30;1.10;;;5.00;98.20;;;;;;5106763;28;20196;-87
2023/03/13 04:27:09;;;;;;;1.27;1.17;;;5.10;98.10;;;;;;5110056;28;20647;-88
2023/03/13 04:29:36;;;;;;;1.20;0.90;;;5.10;98.00;;;;;;5107788;28;20196;-88
2023/03/13 04:32:03;;;;;;;1.23;1.13;;;5.10;98.30;;;;;;5106938;28;20215;-87
2023/03/13 04:34:30;;;;;;;1.40;1.30;;;5.10;98.20;;;;;;5110155;28;20204;-87
2023/03/13 04:36:57;;;;;;;1.27;0.90;;;5.10;98.20;;;;;;5111250;28;20207;-88
2023/03/13 04:39:24;;;;;;;1.10;1.00;;;5.20;97.70;;;;;;5107080;28;20211;-86
2023/03/13 04:41:53;;;;;;;1.20;1.10;;;5.10;97.50;;;;;;5103613;28;20223;-88
2023/03/13 04:44:20;;;;;;;1.00;0.90;;;5.10;97.60;;;;;;5108301;28;20200;-88
2023/03/13 04:46:47;;;;;;;0.80;0.80;;;5.10;97.70;;;;;;5110752;28;20287;-87
2023/03/13 04:49:15;;;;;;;1.60;1.10;;;5.10;97.70;;;;;;5115719;27;20203;-89
2023/03/13 04:51:43;;;;;;;1.20;1.07;;;5.20;97.10;;;;;;5105563;27;20629;-89
2023/03/13 04:54:10;;;;;;;0.80;0.80;;;5.20;97.10;;;;;;5110101;28;20336;-89
2023/03/13 04:56:36;;;;;;;0.95;0.95;;;5.30;97.40;;;;;;5104534;28;20636;-89
2023/03/13 04:59:05;;;;;;;1.33;1.10;;;5.20;97.30;;;;;;5103997;27;20741;-88
2023/03/13 05:01:32;;;;;;;0.90;0.90;;;5.20;97.60;;;;;;5108218;28;20705;-91
2023/03/13 05:03:59;;;;;;;1.70;0.90;;;5.30;97.50;;;;;;5113699;27;20231;-89
2023/03/13 05:06:27;;;;;;;0.90;0.90;;;5.30;97.30;;;;;;5108590;28;20197;-92
2023/03/13 05:08:54;;;;;;;1.43;0.90;;;5.30;97.30;;;;;;5111925;28;20279;-83
2023/03/13 05:11:21;;;;;;;1.93;0.80;;;5.30;97.30;;;;;;5115957;28;20199;-83
2023/03/13 05:13:48;;;;;;;0.90;0.90;;;5.30;97.30;;;;;;5111825;27;20570;-87
2023/03/13 05:16:16;;;;;;;0.80;0.80;;;5.40;97.20;;;;;;5108410;28;20192;-87
2023/03/13 05:18:43;;;;;;;1.30;1.02;;;5.50;96.80;;;;;;5104854;28;20637;-87
2023/03/13 05:21:10;;;;;;;0.77;0.77;;;5.50;96.70;;;;;;5100584;28;20215;-89
2023/03/13 05:23:37;;;;;;;1.20;1.10;;;5.50;96.80;;;;;;5101988;27;20711;-87
2023/03/13 05:26:05;;;;;;;1.13;0.90;;;5.50;97.00;;;;;;5113106;28;20600;-87
2023/03/13 05:28:32;;;;;;;1.20;0.98;;;5.50;97.00;;;;;;5108415;28;20192;-88
2023/03/13 05:30:59;;;;;;;0.90;0.90;;;5.50;96.50;;;;;;5112342;28;20195;-87
2023/03/13 05:36:08;;;;;;;1.07;1.00;;;5.70;96.40;;;;;;5106773;27;20215;-88
2023/03/13 05:38:35;;;;;;;1.83;0.90;;;5.70;96.00;;;;;;5104274;28;20192;-87
2023/03/13 05:41:02;;;;;;;1.07;1.00;;;5.70;96.10;;;;;;5112615;27;20211;-88
2023/03/13 05:43:29;;;;;;;1.15;1.00;;;5.80;96.00;;;;;;5110630;28;20220;-87
2023/03/13 05:45:56;;;;;;;1.13;1.00;;;5.80;95.60;;;;;;5109321;28;20188;-88
2023/03/13 05:48:23;;;;;;;1.17;0.98;;;5.90;95.90;;;;;;5104953;28;20204;-85
2023/03/13 05:50:51;;;;;;;1.60;1.20;;;5.90;95.90;;;;;;5113539;27;20211;-87
2023/03/13 05:53:19;;;;;;;1.40;1.10;;;6.00;95.60;;;;;;5104244;27;20204;-87
2023/03/13 05:55:46;;;;;;;1.13;1.02;;;6.10;95.30;;;;;;5113525;27;20207;-88
2023/03/13 05:58:13;;;;;;;1.30;1.02;;;6.10;95.60;;;;;;5112568;27;20192;-87
2023/03/13 06:00:42;;;;;;;2.92;1.15;;;6.20;95.30;;;;;;5113929;28;20207;-88
2023/03/13 06:03:09;;;;;;;1.15;1.00;;;6.20;95.10;;;;;;5102489;28;20212;-88
2023/03/13 06:05:36;;;;;;;1.50;1.08;;;6.30;95.30;;;;;;5136098;28;20183;-89
2023/03/13 06:08:06;;;;;;;1.30;1.20;;;6.30;95.30;;;;;;5131369;28;20192;-90
2023/03/13 06:10:33;;;;;;;3.10;1.00;;;6.30;95.30;;;;;;5122880;27;20655;-90
2023/03/13 06:12:59;;;;;;;0.90;0.90;;;6.30;95.40;;;;;;5121277;27;20215;-90
2023/03/13 06:15:26;;;;;;;2.20;1.20;;;6.30;95.40;;;;;;5127335;27;20214;-88
2023/03/13 06:17:53;;;;;;;1.38;1.27;;;6.40;95.40;;;;;;5108785;28;20202;-89
2023/03/13 06:20:21;;;;;;;1.55;1.00;;;6.40;95.40;;;;;;5111735;27;20203;-87
2023/03/13 06:22:48;;;;;;;1.10;1.00;;;6.40;95.30;;;;;;5103700;28;20594;-87
2023/03/13 06:25:16;;;;;;;2.63;1.00;;;6.50;95.40;;;;;;5102082;28;20197;-88
2023/03/13 06:27:43;;;;;;;1.50;1.00;;;6.50;95.10;;;;;;5112742;28;20199;-89
2023/03/13 06:30:11;;;;;;;3.85;1.40;;;6.60;94.20;;;;;;5102215;28;20571;-89
2023/03/13 06:32:38;;;;;;;1.65;1.10;;;6.80;93.70;;;;;;5114629;28;20207;-89
2023/03/13 06:35:06;;;;;;;3.42;1.20;;;6.80;93.40;;;;;;5114340;27;20203;-89
2023/03/13 06:37:34;;;;;;;1.70;1.25;;;6.90;93.60;;;;;;5109375;27;20204;-89
2023/03/13 06:40:05;;;;;;;2.15;1.40;;;7.00;94.60;;;;;;5107857;28;20200;-93
2023/03/13 06:42:34;;;;;;;1.48;1.08;;;7.00;94.40;;;;;;5107209;28;20199;-90
2023/03/13 06:45:16;;;;;;;2.28;1.25;;;7.00;94.00;;;;;;5111690;28;20275;-89
2023/03/13 06:47:42;;;;;;;2.78;1.20;;;7.10;93.50;;;;;;5112005;28;20289;-89
2023/03/13 06:50:10;;;;;;;3.30;1.27;;;7.10;93.50;;;;;;5108894;28;20196;-89
2023/03/13 06:52:37;;;;;;;1.83;1.20;;;7.20;93.30;;;;;;5114734;27;20569;-89
2023/03/13 06:55:05;;;;;;;3.50;1.15;;;7.30;92.90;;;;;;5107577;28;20616;-91
2023/03/13 06:57:34;;;;;;;1.50;1.20;;;7.30;93.60;;;;;;5110874;28;20201;-89
2023/03/13 07:00:00;;;;;;;2.03;1.20;;;7.40;93.60;;;;;;5104070;28;20290;-88
2023/03/13 07:02:27;;;;;;;3.90;1.10;;;7.40;93.20;;;;;;5109335;28;20250;-90
2023/03/13 07:04:54;;;;;;;2.83;1.20;;;7.40;92.70;;;;;;5106192;28;20196;-87
2023/03/13 07:07:21;;;;;;;2.67;1.30;;;7.40;92.90;;;;;;5105357;28;20199;-87
2023/03/13 07:09:48;;;;;;;1.50;1.00;;;7.50;92.70;;;;;;5105197;28;20846;-89
2023/03/13 07:12:16;;;;;;;4.38;1.30;;;7.50;92.50;;;;;;5113111;28;20203;-88
2023/03/13 07:14:44;;;;;;;3.70;1.60;;;7.60;92.10;;;;;;5100466;28;20208;-89
2023/03/13 07:17:12;;;;;;;4.55;1.50;;;7.70;92.20;;;;;;5111082;28;20200;-88
2023/03/13 07:19:38;;;;;;;2.35;2.00;;;7.70;91.70;;;;;;5106270;27;20219;-90
2023/03/13 07:22:06;;;;;;;2.25;1.60;;;7.70;92.30;;;;;;5107227;27;21038;-87
2023/03/13 07:24:32;;;;;;;3.47;1.50;;;7.70;92.20;;;;;;5107257;28;20199;-88
2023/03/13 07:26:59;;;;;;;4.28;1.30;;;7.80;91.60;;;;;;5111667;28;20200;-89
2023/03/13 07:29:28;;;;;;;3.33;0.95;;;7.90;91.00;;;;;;5115070;27;20551;-92
2023/03/13 07:31:56;;;;;;;3.58;1.35;;;8.10;90.30;;;;;;5111703;28;20199;-86
2023/03/13 07:34:23;;;;;;;1.23;1.10;;;8.20;90.20;;;;;;5112531;28;20200;-89
2023/03/13 07:36:52;;;;;;;1.15;0.95;;;8.30;88.10;;;;;;5110859;28;20670;-89
2023/03/13 07:39:19;;;;;;;1.20;1.10;;;8.40;86.50;;;;;;5108239;28;20188;-89
2023/03/13 07:41:46;;;;;;;1.25;1.10;;;8.50;82.90;;;;;;5092566;28;20204;-86
2023/03/13 07:44:14;;;;;;;1.40;1.20;;;8.60;81.50;;;;;;5112354;27;20236;-87
2023/03/13 07:46:41;;;;;;;1.30;1.20;;;8.70;80.40;;;;;;5101773;28;20644;-85
2023/03/13 07:51:52;;;;;;;2.55;1.50;;;8.90;75.90;;;;;;5098273;28;20570;-89
2023/03/13 07:54:21;;;;;;;1.80;1.25;;;8.90;77.10;;;;;;5112828;28;20224;-91
2023/03/13 07:59:52;;;;;;;3.70;1.30;;;8.90;81.40;;;;;;5112092;28;20208;-88
2023/03/13 08:02:19;;;;;;;3.45;1.60;;;8.90;79.20;;;;;;5111169;28;20310;-88
2023/03/13 08:13:22;;;;;;;2.50;1.38;;;9.50;82.50;;;;;;5109393;28;20203;-88
2023/03/13 08:15:50;;;;;;;1.73;1.40;;;9.70;79.90;;;;;;5113367;28;20204;-88
2023/03/13 08:18:19;;;;;;;1.80;1.33;;;9.80;76.30;;;;;;5102770;28;20197;-89
2023/03/13 08:20:48;;;;;;;2.58;1.33;;;10.00;66.00;;;;;;5102505;28;20200;-88
2023/03/13 08:23:17;;;;;;;2.15;1.40;;;10.20;56.10;;;;;;5110236;28;20220;-88
2023/03/13 08:25:44;;;;;;;3.97;1.25;;;10.60;58.00;;;;;;5116192;28;20283;-88
2023/03/13 08:28:11;;;;;;;1.70;1.10;;;10.90;49.80;;;;;;5115242;27;20200;-87
2023/03/13 08:30:38;;;;;;;1.33;1.00;;;11.10;53.90;;;;;;5107059;28;20192;-85
2023/03/13 08:33:05;;;;;;;3.63;1.20;;;11.40;48.10;;;;;;5114663;28;20199;-86
2023/03/13 08:35:32;;;;;;;3.42;1.30;;;11.50;48.10;;;;;;5116625;28;20199;-88
2023/03/13 08:38:01;;;;;;;2.30;1.80;;;11.50;48.20;;;;;;5112926;28;20188;-88
2023/03/13 08:40:28;;;;;;;5.20;1.38;;;11.50;45.90;;;;;;5108845;28;20265;-89
2023/03/13 08:42:56;;;;;;;4.53;2.13;;;11.30;48.00;;;;;;5116392;28;20214;-84
2023/03/13 08:45:24;;;;;;;2.60;1.50;;;11.10;49.90;;;;;;5118543;28;20590;-87
2023/03/13 08:47:53;;;;;;;3.42;2.15;;;10.90;56.00;;;;;;5117261;27;20204;-89
2023/03/13 08:50:20;;;;;;;2.65;1.58;;;10.80;62.80;;;;;;5117450;28;20196;-85
2023/03/13 08:52:48;;;;;;;5.10;1.70;;;10.80;66.20;;;;;;5112498;28;20204;-85
2023/03/13 08:55:23;;;;;;;3.72;1.90;;;11.00;70.60;;;;;;5115040;28;20200;-86
2023/03/13 08:57:51;;;;;;;3.53;2.00;;;11.20;60.60;;;;;;5109710;28;20217;-86
2023/03/13 09:00:19;;;;;;;3.00;1.92;;;11.50;57.90;;;;;;5114538;28;20208;-87
2023/03/13 09:02:46;;;;;;;4.72;2.00;;;11.70;54.90;;;;;;5111835;28;20263;-89
2023/03/13 09:05:12;;;;;;;3.63;1.90;;;12.10;48.70;;;;;;5110510;28;20199;-89
2023/03/13 09:07:40;;;;;;;2.92;2.20;;;12.80;42.70;;;;;;5115627;27;20204;-88
2023/03/13 09:10:08;;;;;;;4.15;2.28;;;13.20;41.90;;;;;;5115316;27;20922;-86
2023/03/13 09:12:37;;;;;;;2.05;1.65;;;13.70;37.70;;;;;;5109336;27;20628;-88
2023/03/13 09:15:05;;;;;;;3.72;2.13;;;14.30;33.70;;;;;;5112308;27;20269;-87
2023/03/13 09:17:32;;;;;;;2.05;1.40;;;14.90;33.00;;;;;;5107101;28;20203;-89
2023/03/13 09:19:59;;;;;;;1.42;1.33;;;15.30;28.10;;;;;;5111312;27;20191;-92
2023/03/13 09:22:25;;;;;;;2.25;1.40;;;15.30;27.80;;;;;;5120154;28;20215;-88
2023/03/13 09:24:52;;;;;;;2.28;1.40;;;15.40;28.20;;;;;;5116372;28;20211;-87
2023/03/13 09:27:19;;;;;;;2.08;1.60;;;15.20;26.60;;;;;;5116816;27;20196;-89
2023/03/13 09:29:49;;;;;;;3.38;1.70;;;14.90;27.70;;;;;;5112976;28;20214;-90
2023/03/13 09:32:19;;;;;;;2.67;1.77;;;14.70;27.60;;;;;;5112930;27;20191;-88
2023/03/13 09:34:46;;;;;;;2.00;1.20;;;14.50;27.40;;;;;;5106145;27;20209;-88
2023/03/13 09:37:13;;;;;;;2.08;1.13;;;14.60;27.50;;;;;;5106763;28;20218;-88
2023/03/13 09:39:40;;;;;;;1.13;1.02;;;15.50;26.10;;;;;;5115089;28;20195;-90
2023/03/13 09:42:21;;;;;;;0.80;0.80;;;16.70;23.20;;;;;;5116850;28;20644;-87
2023/03/13 09:44:56;;;;;;;2.15;0.82;;;17.70;18.90;;;;;;5090754;28;20274;-88
2023/03/13 09:47:26;;;;;;;1.10;1.00;;;18.70;15.90;;;;;;5102251;28;20223;-86
2023/03/13 09:49:57;;;;;;;2.13;1.08;;;18.90;15.30;;;;;;5109185;28;20188;-89
2023/03/13 09:52:25;;;;;;;1.60;1.50;;;18.80;15.40;;;;;;5117501;28;20211;-88
2023/03/13 09:54:57;;;;;;;1.35;1.25;;;18.60;16.50;;;;;;5114331;28;20209;-86
2023/03/13 09:57:31;;;;;;;1.85;1.20;;;18.90;16.00;;;;;;5117122;27;20204;-85
2023/03/13 10:00:13;;;;;;;1.30;1.00;;;19.00;15.90;;;;;;5115288;28;20202;-85
2023/03/13 10:02:45;;;;;;;1.60;1.10;;;19.20;16.20;;;;;;5097599;28;20204;-87
2023/03/13 10:05:18;;;;;;;2.53;1.33;;;19.90;13.80;;;;;;5104875;28;20204;-85
2023/03/13 10:07:45;;;;;;;1.00;0.85;;;20.20;13.20;;;;;;5112729;28;20203;-87
2023/03/13 10:10:16;;;;;;;3.95;1.25;;;20.00;14.00;;;;;;5110184;28;20207;-87
2023/03/13 10:12:46;;;;;;;1.13;1.05;;;20.00;13.10;;;;;;5107746;28;20240;-85
2023/03/13 10:15:32;;;;;;;1.85;1.13;;;19.80;13.60;;;;;;5104535;28;20223;-84
2023/03/13 10:18:04;;;;;;;3.17;1.13;;;20.20;12.80;;;;;;5112366;28;20204;-85
2023/03/13 10:20:35;;;;;;;1.10;1.00;;;19.90;14.20;;;;;;5110152;28;20234;-84
2023/03/13 10:23:06;;;;;;;1.23;0.90;;;20.10;14.70;;;;;;5099348;28;20228;-84
2023/03/13 10:25:37;;;;;;;1.73;1.20;;;20.70;12.20;;;;;;5110275;28;20199;-85
2023/03/13 10:28:04;;;;;;;2.45;1.30;;;20.70;11.40;;;;;;5108250;28;20188;-84
2023/03/13 10:30:35;;;;;;;1.30;1.20;;;20.60;11.90;;;;;;5098409;28;20557;-86
2023/03/13 10:33:20;;;;;;;1.42;1.00;;;19.90;13.30;;;;;;5103671;28;20753;-88
2023/03/13 10:36:00;;;;;;;0.90;0.90;;;19.40;14.00;;;;;;5108209;28;20192;-88
2023/03/13 10:38:27;;;;;;;1.45;0.90;;;19.10;14.80;;;;;;5110514;28;20192;-89
2023/03/13 10:40:58;;;;;;;1.40;1.10;;;19.50;15.10;;;;;;5094708;28;20219;-87
2023/03/13 10:43:26;;;;;;;0.82;0.82;;;19.70;14.90;;;;;;5105025;28;20243;-88
2023/03/13 10:45:55;;;;;;;1.52;1.30;;;19.70;14.60;;;;;;5101638;28;20212;-88
2023/03/13 10:48:23;;;;;;;1.20;1.10;;;19.60;13.90;;;;;;5112133;28;20196;-88
2023/03/13 10:50:52;;;;;;;2.67;1.10;;;19.40;14.40;;;;;;5103539;28;20196;-88
2023/03/13 10:53:28;;;;;;;4.63;1.20;;;19.20;16.10;;;;;;5113618;28;20196;-87
2023/03/13 10:55:56;;;;;;;0.82;0.82;;;18.90;16.70;;;;;;5115398;28;20206;-88
2023/03/13 10:58:27;;;;;;;1.00;0.90;;;19.10;15.70;;;;;;5113406;28;20200;-87
2023/03/13 11:03:46;;;;;;;0.80;0.80;;;19.70;14.50;;;;;;5050985;28;20705;-87
2023/03/13 11:06:30;;;;;;;1.70;1.00;;;19.60;15.40;;;;;;5051228;28;20201;-86
2023/03/13 11:09:04;;;;;;;0.82;0.80;;;19.70;15.10;;;;;;5051684;28;20844;-86
2023/03/13 11:11:42;;;;;;;0.98;0.90;;;19.20;14.40;;;;;;5050390;28;20202;-86
2023/03/13 11:14:14;;;;;;;1.98;0.90;;;19.40;15.20;;;;;;5030593;28;20196;-87
2023/03/13 11:16:48;;;;;;;1.98;1.00;;;19.50;14.50;;;;;;5044823;28;20282;-86
2023/03/13 11:19:43;;;;;;;3.22;1.00;;;19.60;15.70;;;;;;5054644;28;20193;-86
2023/03/13 11:22:25;;;;;;;1.15;1.00;;;19.60;14.30;;;;;;5031498;28;20222;-87
2023/03/13 11:27:46;;;;;;;2.00;1.80;;;19.70;16.20;;;;;;5034554;28;20712;-87
2023/03/13 11:33:15;;;;;;;2.47;1.33;;;19.80;16.60;;;;;;5049010;28;20233;-87
2023/03/13 11:35:47;;;;;;;1.48;1.38;;;19.80;15.90;;;;;;5049013;28;20190;-87
2023/03/13 11:41:13;;;;;;;2.40;1.27;;;19.60;17.10;;;;;;5051999;28;20737;-87
2023/03/13 11:43:53;;;;;;;9.77;6.82;;;19.50;18.30;;;;;;5059064;28;20217;-87
2023/03/13 11:46:30;;;;;;;22.52;16.30;;;19.50;18.40;;;;;;5045968;28;20201;-88
2023/03/13 11:49:24;;;;;;;6.88;2.67;;;19.30;18.10;;;;;;5046786;28;20601;-90
2023/03/13 11:52:01;;;;;;;1.52;1.00;;;19.20;19.40;;;;;;5050858;28;20202;-90
2023/03/13 11:54:49;;;;;;;1.70;1.42;;;19.10;20.90;;;;;;5053880;28;20197;-90
2023/03/13 11:57:42;;;;;;;2.03;1.40;;;19.10;20.40;;;;;;5026968;28;20206;-88
2023/03/13 12:03:11;;;;;;;1.48;0.77;;;19.30;22.10;;;;;;5051603;28;20346;-89
2023/03/13 12:05:49;;;;;;;2.22;1.30;;;19.30;22.30;;;;;;5033396;28;20197;-89
2023/03/13 12:08:19;;;;;;;2.45;0.90;;;19.30;22.60;;;;;;5035254;28;20196;-88
2023/03/13 12:13:38;;;;;;;3.90;1.10;;;19.30;22.90;;;;;;5024315;28;20209;-88
2023/03/13 12:16:11;;;;;;;2.25;1.08;;;19.30;22.50;;;;;;5025209;28;20256;-87
2023/03/13 12:18:40;;;;;;;3.10;1.95;;;19.30;21.40;;;;;;5028117;28;20363;-89
2023/03/13 12:21:17;;;;;;;5.57;2.20;;;19.20;22.70;;;;;;5050715;28;20198;-88
2023/03/13 12:23:50;;;;;;;1.20;0.93;;;19.00;21.80;;;;;;5030051;28;20218;-89
2023/03/13 12:26:19;;;;;;;1.75;1.05;;;18.80;22.90;;;;;;5047859;28;20195;-89
2023/03/13 12:28:55;;;;;;;2.63;1.08;;;18.60;22.20;;;;;;5048066;28;20210;-87
2023/03/13 12:31:29;;;;;;;3.13;2.15;;;18.60;22.70;;;;;;5047913;28;20197;-89
2023/03/13 12:34:03;;;;;;;2.40;1.63;;;18.60;23.20;;;;;;5031048;28;20203;-89
2023/03/13 12:36:35;;;;;;;3.03;1.20;;;18.70;23.60;;;;;;5028157;28;20202;-89
2023/03/13 12:39:17;;;;;;;1.60;1.10;;;18.80;23.50;;;;;;5031864;28;20194;-89
2023/03/13 12:41:50;;;;;;;3.33;1.23;;;18.80;22.60;;;;;;5053581;28;20697;-90
2023/03/13 12:44:19;;;;;;;1.35;1.10;;;18.70;22.60;;;;;;5056356;28;20240;-89
2023/03/13 12:46:47;;;;;;;1.80;1.10;;;18.80;22.70;;;;;;5054681;28;20210;-88
2023/03/13 12:49:46;;;;;;;1.25;1.15;;;18.70;21.70;;;;;;5042563;28;20198;-88
2023/03/13 12:52:37;;;;;;;1.63;1.13;;;18.70;22.70;;;;;;5021577;28;20212;-88
2023/03/13 12:55:37;;;;;;;2.00;1.50;;;18.80;22.70;;;;;;5050725;28;20198;-87
2023/03/13 12:58:23;;;;;;;1.73;1.35;;;18.70;23.20;;;;;;5005435;28;20197;-88
2023/03/13 13:00:53;;;;;;;4.68;1.60;;;18.70;23.50;;;;;;5032752;28;20229;-88
2023/03/13 13:03:29;;;;;;;5.20;1.73;;;18.70;23.00;;;;;;5047909;28;20198;-90
2023/03/13 13:06:05;;;;;;;3.05;1.50;;;18.60;23.30;;;;;;5048029;28;20197;-88
2023/03/13 13:08:37;;;;;;;4.47;1.60;;;18.50;23.20;;;;;;5028754;28;20665;-89
2023/03/13 13:15:12;;;;;;;2.95;1.40;;;19.00;23.10;;;;;;5050713;28;20197;-89
2023/03/13 13:18:14;;;;;;;1.95;1.20;;;19.10;22.80;;;;;;5043826;28;20201;-90
2023/03/13 13:20:47;;;;;;;1.58;1.30;;;19.20;21.60;;;;;;5028201;28;20883;-88
2023/03/13 13:23:32;;;;;;;2.45;1.30;;;19.30;23.50;;;;;;5049282;28;20241;-88
2023/03/13 13:26:47;;;;;;;2.38;1.30;;;19.50;22.10;;;;;;5053020;28;20630;-87
2023/03/13 13:29:54;;;;;;;3.35;1.55;;;19.50;22.60;;;;;;5052110;28;20585;-88
2023/03/13 13:32:36;;;;;;;2.72;1.48;;;19.50;21.70;;;;;;5056541;28;20233;-86
2023/03/13 13:35:06;;;;;;;1.60;1.10;;;19.40;21.20;;;;;;5062790;28;20225;-88
2023/03/13 13:37:33;;;;;;;3.08;1.30;;;19.20;21.70;;;;;;5058017;28;20194;-90
2023/03/13 13:40:22;;;;;;;3.53;1.15;;;19.30;22.00;;;;;;5009756;28;20314;-90
2023/03/13 13:42:55;;;;;;;3.58;1.55;;;19.30;22.30;;;;;;5034448;28;20244;-90
2023/03/13 13:45:30;;;;;;;1.73;1.27;;;19.20;21.40;;;;;;5033327;28;20213;-90
2023/03/13 13:48:26;;;;;;;1.45;1.33;;;19.20;22.50;;;;;;5055824;28;20725;-90
2023/03/13 13:51:22;;;;;;;3.45;1.25;;;19.20;22.40;;;;;;5051944;28;20253;-88
2023/03/13 13:53:51;;;;;;;3.30;1.35;;;19.20;22.30;;;;;;5050130;28;20240;-88
2023/03/13 13:56:41;;;;;;;3.63;1.90;;;19.10;22.80;;;;;;5048799;28;20237;-88
2023/03/13 13:59:35;;;;;;;2.65;1.60;;;19.10;22.30;;;;;;5047595;28;20202;-87
2023/03/13 14:02:20;;;;;;;2.85;2.08;;;19.00;21.80;;;;;;5048857;28;20209;-88
2023/03/13 14:04:55;;;;;;;3.10;1.40;;;18.90;22.60;;;;;;5049060;28;20209;-85